Terminal Aerodrome Forecast
Issued by NWS

Home | Current Version | Previous Version | Text Only | Print | Product List | Glossary On
Versions: 1 2 3 4 5 6 7 8 9 10 11 12 13 14 15
972
FTUS44 KJAN 271746 RRA
TAFHKS
TAF
KHKS 271746Z 2718/2818 20006KT 6SM -SHRA VCTS SCT018 BKN028CB
     FM271945 20008KT 5SM SHRA VCTS SCT020 BKN030CB
     FM280000 18007KT 6SM -SHRA BR SCT020 BKN030 OVC050
     FM280800 19005KT 5SM BR VCSH FEW005 SCT015 BKN035
     FM281500 23009KT 6SM -TSRA SCT010 BKN020 BKN030CB=

USA.gov is the U.S. government's official web portal to all federal, state and local government web resources and services.